| time (UTC) | temp C | wind direction | speed KPH | gust KPH | rain 1hr cm | rain 24hr cm | rain mn cm | humidity % | barometer mb |
| 20260505223001 | 17 | 0.0 | 0.0 | 0.00 | 0.00 | 0.00 | 76 | 1015.4 | |
| 20260505221959 | 17 | 0.0 | 0.0 | 0.00 | 0.00 | 0.00 | 76 | 1015.5 | |
| 20260505220001 | 17 | 0.0 | 0.0 | 0.00 | 0.00 | 0.00 | 78 | 1015.5 | |
| 20260505215000 | 17 | 0.0 | 0.0 | 0.00 | 0.00 | 0.00 | 77 | 1015.5 | |
| 20260505214000 | 17 | 0.0 | 0.0 | 0.00 | 0.00 | 0.00 | 78 | 1015.6 | |
| 20260505211959 | 16 | 0.0 | 0.0 | 0.00 | 0.00 | 0.00 | 78 | 1015.6 | |
| 20260505210958 | 16 | 0.0 | 0.0 | 0.00 | 0.00 | 0.00 | 77 | 1015.7 | |
| 20260505210002 | 16 | 0.0 | 0.0 | 0.00 | 0.00 | 0.00 | 78 | 1015.7 | |
| 20260505205004 | 16 | 0.0 | 0.0 | 0.00 | 0.00 | 0.00 | 79 | 1015.8 | |
| 20260505204001 | 16 | 0.0 | 0.0 | 0.00 | 0.00 | 0.00 | 80 | 1015.8 | |
| 20260505203001 | 16 | 0.0 | 0.0 | 0.00 | 0.00 | 0.00 | 79 | 1015.9 | |
| 20260505195959 | 16 | 0.0 | 0.0 | 0.00 | 0.00 | 0.00 | 78 | 1015.9 | |
| 20260505194959 | 16 | 0.0 | 0.0 | 0.00 | 0.00 | 0.00 | 76 | 1015.9 | |
| 20260505194000 | 16 | 0.0 | 0.0 | 0.00 | 0.00 | 0.00 | 80 | 1016.0 | |
| 20260505193000 | 16 | 0.0 | 0.0 | 0.00 | 0.00 | 0.00 | 82 | 1016.0 | |
| 20260505191958 | 15 | 0.0 | 0.0 | 0.00 | 0.00 | 0.00 | 83 | 1016.1 | |
| 20260505190959 | 15 | 0.0 | 0.0 | 0.00 | 0.00 | 0.00 | 85 | 1016.1 | |
| 20260505183959 | 14 | 0.0 | 0.0 | 0.00 | 0.00 | 0.00 | 87 | 1016.1 | |
| 20260505183000 | 14 | 0.0 | 0.0 | 0.00 | 0.00 | 0.00 | 88 | 1016.1 | |
| 20260505181959 | 14 | 0.0 | 0.0 | 0.00 | 0.00 | 0.00 | 88 | 1016.1 | |
| 20260505180958 | 14 | 0.0 | 0.0 | 0.00 | 0.00 | 0.00 | 89 | 1016.0 | |
| 20260505175959 | 14 | 0.0 | 0.0 | 0.00 | 0.00 | 0.00 | 89 | 1016.0 | |
| 20260505174957 | 13 | 0.0 | 0.0 | 0.00 | 0.00 | 0.00 | 89 | 1016.0 | |
| 20260505173957 | 13 | 0.0 | 0.0 | 0.00 | 0.00 | 0.00 | 89 | 1016.0 | |
| 20260505172959 | 13 | 0.0 | 0.0 | 0.00 | 0.00 | 0.00 | 90 | 1015.9 | |
| 20260505171957 | 13 | 0.0 | 0.0 | 0.00 | 0.00 | 0.00 | 90 | 1015.8 | |
| 20260505170959 | 13 | 0.0 | 0.0 | 0.00 | 0.00 | 0.00 | 91 | 1015.7 | |
| 20260505165959 | 13 | 0.0 | 0.0 | 0.00 | 0.00 | 0.00 | 91 | 1015.7 | |
| 20260505164958 | 13 | 0.0 | 0.0 | 0.00 | 0.00 | 0.00 | 92 | 1015.6 | |
| 20260505163958 | 13 | 0.0 | 0.0 | 0.00 | 0.00 | 0.00 | 92 | 1015.7 | |
| 20260505162959 | 13 | 0.0 | 0.0 | 0.00 | 0.00 | 0.00 | 91 | 1015.5 | |
| 20260505161957 | 13 | 0.0 | 0.0 | 0.00 | 0.00 | 0.00 | 92 | 1015.6 | |
| 20260505151959 | 13 | 0.0 | 0.0 | 0.00 | 0.00 | 0.00 | 90 | 1015.5 | |
| 20260505150958 | 13 | 0.0 | 0.0 | 0.00 | 0.00 | 0.00 | 89 | 1015.4 | |
| 20260505124959 | 13 | 0.0 | 0.0 | 0.00 | 0.00 | 0.00 | 84 | 1014.4 | |
| 20260505123958 | 13 | 0.0 | 0.0 | 0.00 | 0.00 | 0.00 | 84 | 1014.3 | |
| 20260505122959 | 13 | 0.0 | 0.0 | 0.00 | 0.00 | 0.00 | 84 | 1014.3 | |
| 20260505121958 | 13 | 0.0 | 0.0 | 0.00 | 0.00 | 0.00 | 84 | 1014.3 | |
| 20260505120958 | 13 | 0.0 | 0.0 | 0.00 | 0.00 | 0.00 | 84 | 1014.3 | |
| 20260505115958 | 13 | 0.0 | 0.0 | 0.00 | 0.00 | 0.00 | 83 | 1014.3 | |
| 20260505113958 | 13 | 0.0 | 0.0 | 0.00 | 0.00 | 0.00 | 83 | 1014.2 | |
| 20260505111957 | 13 | 0.0 | 0.0 | 0.00 | 0.00 | 0.00 | 83 | 1014.2 | |
| 20260505095958 | 14 | 0.0 | 0.0 | 0.00 | 0.00 | 0.00 | 81 | 1013.7 | |
| 20260505094957 | 14 | 0.0 | 0.0 | 0.00 | 0.00 | 0.00 | 82 | 1013.8 | |
| 20260505093957 | 14 | 0.0 | 0.0 | 0.00 | 0.00 | 0.00 | 83 | 1013.7 | |
| 20260505092959 | 14 | 0.0 | 0.0 | 0.00 | 0.00 | 0.00 | 83 | 1013.5 | |
| 20260505090957 | 14 | 0.0 | 0.0 | 0.00 | 0.00 | 0.00 | 83 | 1013.4 | |
| 20260505090000 | 14 | 0.0 | 0.0 | 0.00 | 0.00 | 0.00 | 83 | 1013.2 | |
| 20260505084958 | 14 | 0.0 | 0.0 | 0.00 | 0.00 | 0.00 | 82 | 1013.3 | |
| 20260505083958 | 14 | 0.0 | 0.0 | 0.00 | 0.00 | 0.00 | 82 | 1013.2 | |
| 20260505081957 | 15 | 0.0 | 0.0 | 0.00 | 0.00 | 0.00 | 82 | 1013.2 | |
| 20260505080957 | 15 | 0.0 | 0.0 | 0.00 | 0.00 | 0.00 | 82 | 1013.1 | |
| 20260505080002 | 15 | 0.0 | 0.0 | 0.00 | 0.00 | 0.00 | 81 | 1013.0 | |
| 20260505074000 | 15 | 0.0 | 0.0 | 0.00 | 0.00 | 0.00 | 81 | 1012.7 | |
| 20260505073000 | 15 | 0.0 | 0.0 | 0.00 | 0.00 | 0.00 | 80 | 1012.7 | |
| 20260505072000 | 15 | 0.0 | 0.0 | 0.00 | 0.00 | 0.00 | 80 | 1012.5 | |
| 20260505070959 | 15 | 0.0 | 0.0 | 0.00 | 0.00 | 0.00 | 80 | 1012.4 | |
| 20260505070001 | 15 | 0.0 | 0.0 | 0.00 | 0.00 | 0.00 | 79 | 1012.4 | |
| 20260505064959 | 16 | 0.0 | 0.0 | 0.00 | 0.00 | 0.00 | 78 | 1012.3 | |
| 20260505063959 | 16 | 0.0 | 0.0 | 0.00 | 0.00 | 0.00 | 78 | 1012.0 | |
| 20260505063000 | 16 | 0.0 | 0.0 | 0.00 | 0.00 | 0.00 | 77 | 1011.9 | |
| 20260505061959 | 16 | 0.0 | 0.0 | 0.00 | 0.00 | 0.00 | 77 | 1011.7 | |
| 20260505060959 | 16 | 0.0 | 0.0 | 0.00 | 0.00 | 0.00 | 76 | 1011.6 | |
| 20260505060005 | 17 | 0.0 | 0.0 | 0.00 | 0.00 | 0.00 | 75 | 1011.5 | |
| 20260505054958 | 17 | 0.0 | 0.0 | 0.00 | 0.00 | 0.00 | 75 | 1011.6 | |
| 20260505054000 | 17 | 0.0 | 0.0 | 0.00 | 0.00 | 0.00 | 74 | 1011.5 | |
| 20260505053002 | 17 | 0.0 | 0.0 | 0.00 | 0.00 | 0.00 | 73 | 1011.4 | |
| 20260505050959 | 18 | 0.0 | 0.0 | 0.00 | 0.00 | 0.00 | 71 | 1011.3 | |
| 20260505040958 | 20 | 0.0 | 0.0 | 0.00 | 0.00 | 0.00 | 67 | 1010.5 | |
| 20260505034959 | 21 | 0.0 | 0.0 | 0.00 | 0.00 | 0.00 | 66 | 1010.1 | |
| 20260505033959 | 21 | 0.0 | 0.0 | 0.00 | 0.00 | 0.00 | 68 | 1009.9 | |
| 20260505033001 | 21 | 0.0 | 0.0 | 0.00 | 0.00 | 0.00 | 68 | 1009.6 | |
| 20260505032001 | 21 | 0.0 | 0.0 | 0.00 | 0.00 | 0.00 | 68 | 1009.4 | |
| 20260505031000 | 21 | 0.0 | 0.0 | 0.00 | 0.00 | 0.00 | 68 | 1009.3 | |
| 20260505030002 | 22 | 0.0 | 0.0 | 0.00 | 0.00 | 0.00 | 68 | 1009.2 | |
| 20260505023000 | 22 | 0.0 | 0.0 | 0.00 | 0.00 | 0.00 | 65 | 1009.0 | |
| 20260505020959 | 23 | 0.0 | 0.0 | 0.00 | 0.00 | 0.00 | 65 | 1009.0 | |
| 20260505014959 | 23 | 0.0 | 0.0 | 0.00 | 0.00 | 0.00 | 63 | 1009.1 | |
| 20260505013959 | 23 | 0.0 | 0.0 | 0.00 | 0.00 | 0.00 | 63 | 1009.0 | |
| 20260505013006 | 23 | 0.0 | 0.0 | 0.00 | 0.00 | 0.00 | 62 | 1009.1 | |
| 20260505012000 | 23 | 0.0 | 0.0 | 0.00 | 0.00 | 0.00 | 62 | 1009.2 | |
| 20260505010959 | 23 | 0.0 | 0.0 | 0.00 | 0.00 | 0.00 | 60 | 1009.3 | |
| 20260505010006 | 23 | 0.0 | 0.0 | 0.00 | 0.00 | 0.00 | 61 | 1009.3 | |
| 20260505004958 | 23 | 0.0 | 0.0 | 0.00 | 0.00 | 0.00 | 61 | 1009.4 | |
| 20260505003959 | 24 | 0.0 | 0.0 | 0.00 | 0.00 | 0.00 | 59 | 1009.4 | |
| 20260505003005 | 24 | 0.0 | 0.0 | 0.00 | 0.00 | 0.00 | 60 | 1009.4 | |
| 20260505001959 | 24 | 0.0 | 0.0 | 0.00 | 0.00 | 0.00 | 59 | 1009.5 | |
| 20260505000959 | 24 | 0.0 | 0.0 | 0.00 | 0.00 | 0.00 | 60 | 1009.5 | |
| 20260504235000 | 24 | 0.0 | 0.0 | 0.00 | 0.00 | 0.00 | 57 | 1009.7 | |
| 20260504233959 | 24 | 0.0 | 0.0 | 0.00 | 0.00 | 0.00 | 56 | 1009.7 | |
| 20260504233001 | 24 | 0.0 | 0.0 | 0.00 | 0.00 | 0.00 | 57 | 1009.8 | |
| 20260504230959 | 24 | 0.0 | 0.0 | 0.00 | 0.00 | 0.00 | 57 | 1010.0 | |
| 20260504230001 | 24 | 0.0 | 0.0 | 0.00 | 0.00 | 0.00 | 56 | 1010.1 | |
| 20260504224958 | 23 | 0.0 | 0.0 | 0.00 | 0.00 | 0.00 | 57 | 1010.2 | |
| 20260504223959 | 23 | 0.0 | 0.0 | 0.00 | 0.00 | 0.00 | 58 | 1010.3 |